Craig Municipal, FL

1:19 AM EDT on October 01, 2014 (GMT -0400)
Craig Municipal | Change Station
CLOSE
Current Station
Airport
Location: Jacksonville Craig,
Elevation: 12 m
Nearby Weather Stations

Elev 12 m 30.34 °N, 81.51 °W | Updated 26 minutes ago

Overcast
Overcast
23 °C
Feels Like 23 °C
N
0
Wind Variable Wind from North

Today
High -- | Low -- °C
--% Chance of Precip.
Yesterday
High -- | Low -- °C
Precip. -- mm
7:19 AM 7:11 PM
Waxing Crescent, 44% visible
Pressure 1012 hPa
Visibility 16.1 kilometers
Clouds Overcast 1981 m
Dew Point 21 °C
Humidity 85%
Rainfall 0.0 mm
Snow Depth Not available.
UV 0 out of 12
Pollen 4.40 out of 12
Ozone Good
PM2.5 Good
Flu Activity Not available.
METAR KCRG 010453Z AUTO 00000KT 10SM OVC065 23/21 A2989 RMK AO2 SLP121 T02330206 402670222

More Conditions Fewer Conditions

Pressure 1012 hPa
Visibility 16.1 kilometers
Clouds Overcast 1981 m
Dew Point 21 °C
Humidity 85%
Rainfall 0.0 mm
Snow Depth Not available.
UV 0 out of 12
Pollen 4.40 out of 12
Ozone Good
PM2.5 Good
Flu Activity Not available.
METAR KCRG 010453Z AUTO 00000KT 10SM OVC065 23/21 A2989 RMK AO2 SLP121 T02330206 402670222

More Conditions Fewer Conditions

10-Day Weather Forecast

Almanac

Astronomy

Oct. 01, 2014 Rise Set
Actual Time 7:19 AM EDT 7:11 PM EDT
Civil Twilight 6:55 AM EDT 7:35 PM EDT
Nautical Twilight 6:27 AM EDT 8:03 PM EDT
Astronomical Twilight 5:59 AM EDT 8:31 PM EDT
Moon 2:01 PM EDT No Moon Set
Length of Visible Light 12h 39m
Length of Day
11h 51m
Tomorrow will be 1m 48s shorter.
Waxing Crescent, 44% of the Moon is Illuminated
Today
Waxing Crescent
Oct 1
First Quarter
Oct 8
Full
Oct 15
Last Quarter
Oct 23
New

Today's Extremes

State Highs State Lows

Community

WunderPhotos

Upload Photos

1,757,851 photos uploaded!

Nearby

Air Quality

  Air Quality AQ Index Pollutant
Yesterday Good
OZONE
Yesterday Good
PM2.5
Current Good
OZONE
Current Good
PM2.5
Tuesday Good
OZONE
Tuesday Good
PM2.5
Wednesday Good
OZONE
Wednesday Good
PM2.5

Snow Depth

Station Depth Elevation
No new snow has been reported.

Earthquake Activity

City Distance Mag. Time & Date
No recent earthquake activity has been reported nearby.
Minimum magnitude displayed is 2.5.

Coastal Water Temperatures

Place Temperature
Mayport (Bar Pilots Dock), FL 26.1 °C
Fernandina Beach, FL 25.6 °C

Nearby Weather Stations